Time;durP1;ratioP1;P1;durP2;ratioP2;P2;SDS_P1;SDS_P2;PMS_P1;PMS_P2;Temp;Humidity;BMP_temperature;BMP_pressure;BME280_temperature;BME280_humidity;BME280_pressure;Samples;Min_cycle;Max_cycle;Signal;HPM_P1;HPM_P2
2023/09/18 00:00:01;;;;;;;2.08;1.98;;;;;;;;;;5026741;28;20077;-62
2023/09/18 00:02:29;;;;;;;2.13;2.03;;;;;;;;;;5026513;28;20041;-62
2023/09/18 00:04:55;;;;;;;2.10;2.00;;;;;;;;;;5026264;28;20065;-62
2023/09/18 00:07:21;;;;;;;1.65;1.55;;;;;;;;;;5026576;28;20063;-62
2023/09/18 00:09:48;;;;;;;1.45;1.35;;;;;;;;;;5025325;28;20553;-62
2023/09/18 00:12:14;;;;;;;1.05;1.05;;;;;;;;;;5026160;28;20709;-62
2023/09/18 00:14:41;;;;;;;1.02;1.02;;;;;;;;;;5025888;28;20733;-62
2023/09/18 00:17:08;;;;;;;1.65;1.55;;;;;;;;;;5026109;28;20121;-62
2023/09/18 00:19:34;;;;;;;1.40;1.30;;;;;;;;;;5026019;28;20042;-62
2023/09/18 00:22:00;;;;;;;1.08;1.08;;;;;;;;;;5025104;28;20045;-62
2023/09/18 00:24:27;;;;;;;1.20;1.10;;;;;;;;;;5025423;28;20116;-62
2023/09/18 00:26:53;;;;;;;1.20;1.10;;;;;;;;;;5025640;28;20033;-62
2023/09/18 00:29:19;;;;;;;1.55;1.45;;;;;;;;;;5025401;28;20045;-62
2023/09/18 00:31:45;;;;;;;1.55;1.45;;;;;;;;;;5025499;28;20041;-62
2023/09/18 00:34:11;;;;;;;0.90;0.90;;;;;;;;;;5026178;28;20615;-62
2023/09/18 00:36:38;;;;;;;1.15;1.05;;;;;;;;;;5025075;28;20041;-62
2023/09/18 00:39:04;;;;;;;1.17;1.08;;;;;;;;;;5025211;28;20049;-62
2023/09/18 00:41:30;;;;;;;1.17;1.08;;;;;;;;;;5025804;28;20046;-62
2023/09/18 00:43:56;;;;;;;1.10;1.10;;;;;;;;;;5024695;28;20060;-62
2023/09/18 00:46:23;;;;;;;1.17;1.17;;;;;;;;;;5025622;28;20041;-62
2023/09/18 00:48:49;;;;;;;0.75;0.75;;;;;;;;;;5025008;28;20049;-62
2023/09/18 00:51:15;;;;;;;0.82;0.82;;;;;;;;;;5023505;28;20053;-62
2023/09/18 00:53:46;;;;;;;0.82;0.82;;;;;;;;;;5025228;28;20456;-61
2023/09/18 00:56:12;;;;;;;1.05;0.95;;;;;;;;;;5024684;28;20493;-62
2023/09/18 00:58:39;;;;;;;1.08;1.05;;;;;;;;;;5021022;28;20099;-62
2023/09/18 01:01:05;;;;;;;1.40;1.30;;;;;;;;;;5021253;28;20488;-62
2023/09/18 01:03:31;;;;;;;0.90;0.90;;;;;;;;;;5025684;28;20052;-62
2023/09/18 01:05:57;;;;;;;0.77;0.77;;;;;;;;;;5024827;28;20049;-62
2023/09/18 01:08:23;;;;;;;0.98;0.93;;;;;;;;;;5024349;28;20228;-62
2023/09/18 01:10:52;;;;;;;0.57;0.57;;;;;;;;;;5024732;28;20532;-62
2023/09/18 01:13:22;;;;;;;0.80;0.80;;;;;;;;;;5024714;28;20128;-62
2023/09/18 01:16:02;;;;;;;1.40;1.30;;;;;;;;;;5024839;28;20056;-62
2023/09/18 01:18:28;;;;;;;0.68;0.68;;;;;;;;;;5024657;28;20037;-62
2023/09/18 01:20:54;;;;;;;0.77;0.77;;;;;;;;;;5024733;28;20128;-62
2023/09/18 01:23:20;;;;;;;0.98;0.95;;;;;;;;;;5024418;28;20045;-62
2023/09/18 01:25:46;;;;;;;1.13;1.13;;;;;;;;;;5024058;28;20044;-61
2023/09/18 01:28:12;;;;;;;1.20;1.13;;;;;;;;;;5022470;28;20049;-62
2023/09/18 01:30:38;;;;;;;1.38;1.27;;;;;;;;;;5025217;28;20041;-62
2023/09/18 01:33:04;;;;;;;0.82;0.82;;;;;;;;;;5024298;28;20469;-62
2023/09/18 01:35:33;;;;;;;1.15;1.10;;;;;;;;;;5025021;28;20072;-62
2023/09/18 01:38:00;;;;;;;1.35;1.25;;;;;;;;;;5024957;28;20234;-62
2023/09/18 01:40:26;;;;;;;1.00;1.00;;;;;;;;;;5024667;28;20538;-62
2023/09/18 01:42:53;;;;;;;1.08;1.08;;;;;;;;;;5024912;28;20037;-62
2023/09/18 01:45:19;;;;;;;1.58;0.80;;;;;;;;;;5024821;28;20072;-62
2023/09/18 01:47:46;;;;;;;0.90;0.90;;;;;;;;;;5023672;28;20573;-62
2023/09/18 01:50:13;;;;;;;1.30;1.20;;;;;;;;;;5023195;28;20520;-62
2023/09/18 01:52:39;;;;;;;1.30;1.20;;;;;;;;;;5024804;28;20085;-62
2023/09/18 01:55:05;;;;;;;1.55;1.45;;;;;;;;;;5024347;28;20472;-62
2023/09/18 01:57:31;;;;;;;1.50;1.40;;;;;;;;;;5025039;28;20041;-62
2023/09/18 01:59:57;;;;;;;1.60;1.50;;;;;;;;;;5023636;28;20686;-62
2023/09/18 02:02:23;;;;;;;1.30;1.20;;;;;;;;;;5024235;28;20045;-62
2023/09/18 02:04:49;;;;;;;1.60;1.50;;;;;;;;;;5024328;28;20095;-61
2023/09/18 02:07:15;;;;;;;1.10;1.00;;;;;;;;;;5024239;28;20042;-62
2023/09/18 02:09:41;;;;;;;1.33;1.27;;;;;;;;;;5024750;28;20125;-62
2023/09/18 02:12:08;;;;;;;1.27;1.23;;;;;;;;;;5024673;28;20168;-62
2023/09/18 02:14:34;;;;;;;1.67;1.58;;;;;;;;;;5024130;28;20052;-62
2023/09/18 02:17:00;;;;;;;1.35;1.25;;;;;;;;;;5024494;28;20037;-62
2023/09/18 02:19:26;;;;;;;1.40;1.30;;;;;;;;;;5024220;28;20041;-62
2023/09/18 02:21:52;;;;;;;2.58;2.38;;;;;;;;;;5023446;28;20383;-62
2023/09/18 02:24:19;;;;;;;2.67;2.47;;;;;;;;;;5024726;28;20049;-62
2023/09/18 02:26:45;;;;;;;2.90;2.70;;;;;;;;;;5024163;28;20049;-62
2023/09/18 02:29:13;;;;;;;1.95;1.85;;;;;;;;;;5021956;28;20044;-61
2023/09/18 02:31:39;;;;;;;2.22;2.03;;;;;;;;;;5020618;28;20045;-62
2023/09/18 02:34:07;;;;;;;1.90;1.80;;;;;;;;;;5024343;28;20064;-62
2023/09/18 02:36:33;;;;;;;2.00;1.90;;;;;;;;;;5023992;28;20071;-62
2023/09/18 02:38:59;;;;;;;2.30;2.20;;;;;;;;;;5023579;28;20061;-62
2023/09/18 02:41:25;;;;;;;2.25;2.15;;;;;;;;;;5024558;28;20048;-62
2023/09/18 02:43:51;;;;;;;1.63;1.50;;;;;;;;;;5023714;28;20037;-62
2023/09/18 02:46:18;;;;;;;1.80;1.70;;;;;;;;;;5024772;28;20060;-62
2023/09/18 02:48:44;;;;;;;1.73;1.63;;;;;;;;;;5027443;28;20102;-62
2023/09/18 02:51:10;;;;;;;2.00;1.80;;;;;;;;;;5027297;28;20053;-62
2023/09/18 02:53:36;;;;;;;2.33;2.20;;;;;;;;;;5027772;28;20403;-62
2023/09/18 02:56:02;;;;;;;2.80;2.60;;;;;;;;;;5025026;28;20248;-62
2023/09/18 02:58:30;;;;;;;2.42;2.22;;;;;;;;;;5027327;28;20045;-62
2023/09/18 03:00:58;;;;;;;2.28;2.17;;;;;;;;;;5027625;28;20195;-62
2023/09/18 03:03:24;;;;;;;2.90;2.70;;;;;;;;;;5027392;28;20061;-62
2023/09/18 03:05:51;;;;;;;2.67;2.47;;;;;;;;;;5024967;28;20055;-62
2023/09/18 03:08:17;;;;;;;2.33;2.13;;;;;;;;;;5029275;28;20103;-62
2023/09/18 03:10:43;;;;;;;1.67;1.58;;;;;;;;;;5026846;28;20045;-62
2023/09/18 03:13:10;;;;;;;1.90;1.80;;;;;;;;;;5027560;28;20037;-62
2023/09/18 03:15:37;;;;;;;1.50;1.40;;;;;;;;;;5027483;28;20069;-62
2023/09/18 03:18:04;;;;;;;1.65;1.55;;;;;;;;;;5026454;28;20033;-62
2023/09/18 03:20:30;;;;;;;1.00;1.00;;;;;;;;;;5027810;28;20050;-62
2023/09/18 03:23:00;;;;;;;1.13;1.10;;;;;;;;;;5027619;28;20036;-62
2023/09/18 03:25:26;;;;;;;1.40;1.30;;;;;;;;;;5025585;28;20166;-62
2023/09/18 03:27:52;;;;;;;1.92;1.83;;;;;;;;;;5027205;28;20073;-62
2023/09/18 03:30:19;;;;;;;1.60;1.50;;;;;;;;;;5027633;28;20045;-62
2023/09/18 03:32:45;;;;;;;1.27;1.17;;;;;;;;;;5024136;28;20040;-62
2023/09/18 03:35:18;;;;;;;0.95;0.95;;;;;;;;;;5027286;28;20152;-62
2023/09/18 03:37:48;;;;;;;0.90;0.90;;;;;;;;;;5026813;28;20053;-62
2023/09/18 03:40:14;;;;;;;1.38;1.27;;;;;;;;;;5026333;28;20056;-62
2023/09/18 03:42:41;;;;;;;1.23;1.15;;;;;;;;;;5026127;28;20045;-62
2023/09/18 03:45:07;;;;;;;0.93;0.93;;;;;;;;;;5026141;28;20037;-62
2023/09/18 03:47:35;;;;;;;1.17;1.08;;;;;;;;;;5025854;28;20057;-62
2023/09/18 03:50:02;;;;;;;0.77;0.77;;;;;;;;;;5026866;28;20050;-62
2023/09/18 03:52:28;;;;;;;0.75;0.75;;;;;;;;;;5026832;28;20619;-62
2023/09/18 03:54:53;;;;;;;1.00;1.00;;;;;;;;;;5025769;28;20076;-62
2023/09/18 03:57:19;;;;;;;2.38;2.17;;;;;;;;;;5026429;28;20037;-62
2023/09/18 03:59:45;;;;;;;2.30;2.10;;;;;;;;;;5025746;28;20526;-62
2023/09/18 04:02:12;;;;;;;2.10;2.00;;;;;;;;;;5026744;28;20038;-62
2023/09/18 04:04:38;;;;;;;3.30;3.10;;;;;;;;;;5023699;28;20049;-62
2023/09/18 04:07:07;;;;;;;2.40;2.20;;;;;;;;;;5025826;28;20095;-62
2023/09/18 04:09:34;;;;;;;2.60;2.40;;;;;;;;;;5026759;28;20095;-62
2023/09/18 04:12:00;;;;;;;2.80;2.60;;;;;;;;;;5026345;28;20049;-62
2023/09/18 04:14:26;;;;;;;3.35;3.15;;;;;;;;;;5026217;28;20053;-62
2023/09/18 04:16:52;;;;;;;3.80;3.50;;;;;;;;;;5026027;28;20091;-62
2023/09/18 04:19:18;;;;;;;4.40;4.10;;;;;;;;;;5027179;28;20400;-62
2023/09/18 04:21:44;;;;;;;3.67;3.38;;;;;;;;;;5024891;28;20045;-62
2023/09/18 04:24:10;;;;;;;2.58;2.38;;;;;;;;;;5026221;28;20040;-62
2023/09/18 04:26:37;;;;;;;2.72;2.53;;;;;;;;;;5025831;28;20034;-62
2023/09/18 04:29:04;;;;;;;2.15;2.05;;;;;;;;;;5025064;28;20099;-62
2023/09/18 04:31:30;;;;;;;1.75;1.65;;;;;;;;;;5026419;28;20033;-62
2023/09/18 04:33:56;;;;;;;1.80;1.70;;;;;;;;;;5025724;28;20409;-62
2023/09/18 04:36:22;;;;;;;1.50;1.40;;;;;;;;;;5025366;28;20764;-62
2023/09/18 04:38:48;;;;;;;1.38;1.30;;;;;;;;;;5025758;28;20047;-62
2023/09/18 04:41:15;;;;;;;1.40;1.30;;;;;;;;;;5025897;28;20184;-62
2023/09/18 04:43:44;;;;;;;1.52;1.42;;;;;;;;;;5025803;28;20044;-62
2023/09/18 04:46:10;;;;;;;1.48;1.38;;;;;;;;;;5024937;28;20470;-62
2023/09/18 04:48:36;;;;;;;1.08;1.02;;;;;;;;;;5024574;28;20057;-62
2023/09/18 04:51:03;;;;;;;1.40;1.30;;;;;;;;;;5025025;28;20454;-62
2023/09/18 04:53:29;;;;;;;2.20;2.10;;;;;;;;;;5025935;28;20501;-62
2023/09/18 04:55:55;;;;;;;4.80;4.18;;;;;;;;;;5024424;28;20041;-62
2023/09/18 04:58:22;;;;;;;4.50;4.10;;;;;;;;;;5025474;28;20048;-62
2023/09/18 05:00:54;;;;;;;4.57;4.28;;;;;;;;;;5024561;28;20099;-62
2023/09/18 05:03:21;;;;;;;4.25;3.85;;;;;;;;;;5025617;28;20649;-62
2023/09/18 05:05:47;;;;;;;5.43;5.03;;;;;;;;;;5024815;28;20037;-62
2023/09/18 05:08:13;;;;;;;4.40;4.05;;;;;;;;;;5025307;28;20037;-62
2023/09/18 05:10:39;;;;;;;4.55;4.25;;;;;;;;;;5024852;28;20049;-62
2023/09/18 05:13:06;;;;;;;4.20;3.97;;;;;;;;;;5025251;28;20044;-62
2023/09/18 05:15:33;;;;;;;3.90;3.60;;;;;;;;;;5025517;28;20034;-62
2023/09/18 05:17:59;;;;;;;3.63;3.38;;;;;;;;;;5024731;28;20052;-62
2023/09/18 05:20:26;;;;;;;3.42;3.08;;;;;;;;;;5025694;28;20421;-62
2023/09/18 05:22:53;;;;;;;3.15;2.95;;;;;;;;;;5024088;28;20049;-62
2023/09/18 05:25:21;;;;;;;4.25;3.95;;;;;;;;;;5024529;28;20567;-62
2023/09/18 05:27:48;;;;;;;3.10;2.80;;;;;;;;;;5024793;28;20044;-62
2023/09/18 05:30:21;;;;;;;3.03;2.83;;;;;;;;;;5024880;28;20668;-62
2023/09/18 05:32:47;;;;;;;3.22;3.00;;;;;;;;;;5021417;28;20037;-62
2023/09/18 05:35:14;;;;;;;4.22;3.50;;;;;;;;;;5025118;28;20128;-62
2023/09/18 05:37:40;;;;;;;3.20;3.00;;;;;;;;;;5025194;28;20037;-62
2023/09/18 05:40:09;;;;;;;3.47;3.22;;;;;;;;;;5024504;28;20037;-62
2023/09/18 05:42:36;;;;;;;2.35;2.25;;;;;;;;;;5028706;28;20081;-62
2023/09/18 05:45:04;;;;;;;2.88;2.67;;;;;;;;;;5022736;28;20072;-62
2023/09/18 05:47:30;;;;;;;2.90;2.70;;;;;;;;;;5023800;28;20130;-62
2023/09/18 05:49:56;;;;;;;3.72;3.42;;;;;;;;;;5024941;28;20041;-62
2023/09/18 05:52:23;;;;;;;3.20;3.00;;;;;;;;;;5024138;28;20057;-62
2023/09/18 05:54:49;;;;;;;5.30;4.80;;;;;;;;;;5024221;28;20049;-62
2023/09/18 05:57:16;;;;;;;4.00;3.65;;;;;;;;;;5025084;28;20045;-62
2023/09/18 05:59:44;;;;;;;3.92;3.63;;;;;;;;;;5024692;28;20045;-62
2023/09/18 06:02:11;;;;;;;3.90;3.60;;;;;;;;;;5024908;28;20041;-62
2023/09/18 06:04:37;;;;;;;3.95;3.65;;;;;;;;;;5024852;28;20825;-62
2023/09/18 06:07:03;;;;;;;5.55;4.30;;;;;;;;;;5023045;28;20041;-62
2023/09/18 06:09:29;;;;;;;4.90;4.50;;;;;;;;;;5025275;28;20124;-62
2023/09/18 06:11:55;;;;;;;4.18;3.83;;;;;;;;;;5024645;28;20219;-63
2023/09/18 06:14:21;;;;;;;4.40;4.07;;;;;;;;;;5023761;28;20049;-62
2023/09/18 06:16:47;;;;;;;3.63;3.42;;;;;;;;;;5024519;28;20049;-62
2023/09/18 06:19:13;;;;;;;4.07;3.78;;;;;;;;;;5024523;28;20773;-62
2023/09/18 06:21:39;;;;;;;3.40;3.20;;;;;;;;;;5024830;28;20729;-62
2023/09/18 06:24:06;;;;;;;3.03;2.83;;;;;;;;;;5028413;28;20480;-62
2023/09/18 06:26:32;;;;;;;2.67;2.58;;;;;;;;;;5028374;28;20042;-62
2023/09/18 06:28:58;;;;;;;3.30;3.10;;;;;;;;;;5027787;28;20359;-62
2023/09/18 06:31:24;;;;;;;2.20;2.10;;;;;;;;;;5019931;28;20060;-62
2023/09/18 06:33:50;;;;;;;2.20;2.00;;;;;;;;;;5024321;28;20195;-62
2023/09/18 06:36:16;;;;;;;2.10;2.00;;;;;;;;;;5025894;28;20671;-62
2023/09/18 06:38:42;;;;;;;3.78;2.80;;;;;;;;;;5028919;28;20037;-62
2023/09/18 06:41:08;;;;;;;7.20;3.00;;;;;;;;;;5027754;28;20103;-62
2023/09/18 06:43:34;;;;;;;2.67;2.47;;;;;;;;;;5027953;28;20334;-62
2023/09/18 06:46:00;;;;;;;3.53;2.60;;;;;;;;;;5028430;28;20038;-62
2023/09/18 06:48:26;;;;;;;2.65;2.45;;;;;;;;;;5028036;28;20063;-62
2023/09/18 06:50:52;;;;;;;1.65;1.55;;;;;;;;;;5025415;28;20176;-62
2023/09/18 06:53:18;;;;;;;2.22;2.13;;;;;;;;;;5028558;28;20064;-62
2023/09/18 06:55:44;;;;;;;2.65;2.35;;;;;;;;;;5027664;28;20571;-62
2023/09/18 06:58:10;;;;;;;2.92;2.72;;;;;;;;;;5028233;28;20041;-62
2023/09/18 07:00:36;;;;;;;3.95;3.65;;;;;;;;;;5025445;28;20536;-62
2023/09/18 07:03:02;;;;;;;3.00;2.80;;;;;;;;;;5017981;28;20050;-62
2023/09/18 07:05:28;;;;;;;4.43;3.60;;;;;;;;;;5022655;28;20041;-62
2023/09/18 07:07:55;;;;;;;4.00;3.70;;;;;;;;;;5026530;28;20029;-62
2023/09/18 07:10:21;;;;;;;3.53;3.22;;;;;;;;;;5027917;28;20402;-62
2023/09/18 07:12:47;;;;;;;3.00;2.80;;;;;;;;;;5028427;28;20048;-62
2023/09/18 07:15:13;;;;;;;3.25;3.05;;;;;;;;;;5027582;28;20078;-62
2023/09/18 07:17:39;;;;;;;3.45;3.15;;;;;;;;;;5027621;28;20124;-62
2023/09/18 07:20:13;;;;;;;2.70;2.50;;;;;;;;;;5027639;28;20041;-62
2023/09/18 07:22:41;;;;;;;2.70;2.45;;;;;;;;;;5028129;28;20049;-65
2023/09/18 07:25:07;;;;;;;3.67;3.45;;;;;;;;;;5027545;28;20053;-62
2023/09/18 07:27:33;;;;;;;6.32;5.50;;;;;;;;;;5026826;28;20025;-62
2023/09/18 07:29:59;;;;;;;5.78;4.57;;;;;;;;;;5028082;28;20531;-62
2023/09/18 07:32:28;;;;;;;5.07;4.63;;;;;;;;;;5027170;28;20041;-62
2023/09/18 07:34:54;;;;;;;6.00;4.70;;;;;;;;;;5027835;28;20053;-63
2023/09/18 07:37:21;;;;;;;4.28;3.97;;;;;;;;;;5027418;28;20053;-63
2023/09/18 07:39:47;;;;;;;3.22;3.03;;;;;;;;;;5026278;28;20413;-64
2023/09/18 07:42:14;;;;;;;3.63;3.33;;;;;;;;;;5023863;28;20034;-63
2023/09/18 07:44:40;;;;;;;5.00;3.70;;;;;;;;;;5027479;28;20052;-63
2023/09/18 07:47:06;;;;;;;2.83;2.63;;;;;;;;;;5026407;28;20590;-63
2023/09/18 07:49:32;;;;;;;2.95;2.63;;;;;;;;;;5026334;28;20061;-63
2023/09/18 07:51:58;;;;;;;2.10;2.00;;;;;;;;;;5025609;28;20674;-63
2023/09/18 07:54:24;;;;;;;2.25;2.05;;;;;;;;;;5025381;28;20044;-63
2023/09/18 07:56:50;;;;;;;2.58;2.38;;;;;;;;;;5024717;28;20055;-63
2023/09/18 07:59:16;;;;;;;1.75;1.65;;;;;;;;;;5025690;28;20037;-63
2023/09/18 08:01:42;;;;;;;1.50;1.40;;;;;;;;;;5026105;28;20493;-63
2023/09/18 08:04:08;;;;;;;3.15;1.73;;;;;;;;;;5026713;28;20182;-63
2023/09/18 08:06:34;;;;;;;1.23;1.15;;;;;;;;;;5026237;28;20505;-63
2023/09/18 08:09:01;;;;;;;1.50;1.40;;;;;;;;;;5026769;28;20039;-63
2023/09/18 08:11:27;;;;;;;3.30;3.08;;;;;;;;;;5027097;28;20045;-63
2023/09/18 08:13:53;;;;;;;2.53;2.33;;;;;;;;;;5025934;28;20037;-63
2023/09/18 08:16:19;;;;;;;3.22;3.03;;;;;;;;;;5026702;28;20041;-63
2023/09/18 08:18:45;;;;;;;2.10;2.00;;;;;;;;;;5025403;28;20042;-63
2023/09/18 08:21:13;;;;;;;2.08;1.88;;;;;;;;;;5025560;28;20045;-63
2023/09/18 08:23:39;;;;;;;2.08;1.98;;;;;;;;;;5026575;28;20045;-63
2023/09/18 08:26:05;;;;;;;1.98;1.77;;;;;;;;;;5025548;28;20065;-63
2023/09/18 08:28:31;;;;;;;2.08;1.98;;;;;;;;;;5025970;28;20040;-63
2023/09/18 08:30:58;;;;;;;1.88;1.77;;;;;;;;;;5026007;28;20118;-63
2023/09/18 08:33:24;;;;;;;1.50;1.40;;;;;;;;;;5026431;28;20490;-63
2023/09/18 08:35:50;;;;;;;2.90;2.00;;;;;;;;;;5025608;28;20049;-63
2023/09/18 08:38:16;;;;;;;2.20;1.90;;;;;;;;;;5026053;28;20063;-63
2023/09/18 08:40:42;;;;;;;2.03;1.83;;;;;;;;;;5026194;28;20121;-63
2023/09/18 08:43:09;;;;;;;1.65;1.55;;;;;;;;;;5025626;28;21516;-63
2023/09/18 08:45:38;;;;;;;1.73;1.63;;;;;;;;;;5025589;28;20056;-63
2023/09/18 08:48:05;;;;;;;2.30;2.10;;;;;;;;;;5025389;28;20509;-63
2023/09/18 08:50:31;;;;;;;2.30;2.10;;;;;;;;;;5025964;28;20092;-63
2023/09/18 08:52:57;;;;;;;2.03;1.77;;;;;;;;;;5025840;28;20049;-63
2023/09/18 08:55:24;;;;;;;1.80;1.70;;;;;;;;;;5025520;28;20368;-63
2023/09/18 08:57:50;;;;;;;2.88;2.58;;;;;;;;;;5025812;28;20034;-63
2023/09/18 09:00:17;;;;;;;2.38;2.17;;;;;;;;;;5026030;28;20523;-63
2023/09/18 09:02:48;;;;;;;2.58;2.38;;;;;;;;;;5025217;28;20397;-64
2023/09/18 09:05:14;;;;;;;3.92;3.58;;;;;;;;;;5024100;28;20049;-63
2023/09/18 09:07:40;;;;;;;3.25;3.00;;;;;;;;;;5022446;28;20033;-63
2023/09/18 09:10:06;;;;;;;4.40;4.10;;;;;;;;;;5021052;28;20576;-63
2023/09/18 09:12:53;;;;;;;4.18;3.83;;;;;;;;;;5022858;28;20383;-63
2023/09/18 09:15:19;;;;;;;4.15;3.78;;;;;;;;;;5019683;28;20507;-63
2023/09/18 09:17:45;;;;;;;3.83;3.53;;;;;;;;;;5025085;28;20037;-63
2023/09/18 09:20:13;;;;;;;3.88;3.30;;;;;;;;;;5023625;28;20397;-63
2023/09/18 09:22:40;;;;;;;4.20;3.90;;;;;;;;;;5025540;28;20556;-63
2023/09/18 09:25:21;;;;;;;4.38;4.03;;;;;;;;;;5024251;28;20215;-63
2023/09/18 09:27:48;;;;;;;5.05;4.65;;;;;;;;;;5025492;28;20045;-63
2023/09/18 09:30:21;;;;;;;5.00;4.60;;;;;;;;;;5025756;28;20072;-63
2023/09/18 09:32:51;;;;;;;4.78;4.38;;;;;;;;;;5025145;28;20052;-63
2023/09/18 09:35:26;;;;;;;5.32;4.93;;;;;;;;;;5022833;28;20042;-63
2023/09/18 09:37:54;;;;;;;5.05;4.63;;;;;;;;;;5024517;28;20037;-63
2023/09/18 09:40:21;;;;;;;4.75;4.45;;;;;;;;;;5024542;28;20045;-63
2023/09/18 09:42:47;;;;;;;4.65;3.63;;;;;;;;;;5025162;28;20127;-63
2023/09/18 09:45:18;;;;;;;3.10;2.85;;;;;;;;;;5024666;28;20041;-63
2023/09/18 09:47:44;;;;;;;4.30;3.90;;;;;;;;;;5019164;28;20425;-63
2023/09/18 09:50:15;;;;;;;5.80;5.35;;;;;;;;;;5022104;28;20735;-63
2023/09/18 09:52:48;;;;;;;5.53;4.80;;;;;;;;;;5025109;28;20049;-63
2023/09/18 09:55:24;;;;;;;4.68;4.35;;;;;;;;;;5021691;28;20299;-63
2023/09/18 09:57:57;;;;;;;4.78;4.43;;;;;;;;;;5025669;28;20044;-63
2023/09/18 10:00:29;;;;;;;4.95;4.57;;;;;;;;;;5029035;28;20087;-63
2023/09/18 10:03:00;;;;;;;4.25;3.70;;;;;;;;;;5018432;28;20042;-63
2023/09/18 10:05:28;;;;;;;3.38;3.08;;;;;;;;;;5018351;28;20172;-63
2023/09/18 10:07:55;;;;;;;3.50;3.30;;;;;;;;;;5025493;28;20041;-63
2023/09/18 10:10:21;;;;;;;5.55;5.15;;;;;;;;;;5027019;28;20045;-63
2023/09/18 10:12:49;;;;;;;5.38;5.07;;;;;;;;;;5026318;28;20087;-59
2023/09/18 10:15:16;;;;;;;7.68;6.03;;;;;;;;;;5028477;28;20049;-59
2023/09/18 10:17:46;;;;;;;4.88;4.47;;;;;;;;;;5028677;28;20127;-58
2023/09/18 10:20:19;;;;;;;6.63;6.05;;;;;;;;;;5028059;28;20048;-58
2023/09/18 10:22:49;;;;;;;6.28;5.78;;;;;;;;;;5028720;28;20038;-58
2023/09/18 10:25:22;;;;;;;8.00;6.90;;;;;;;;;;5028446;28;20155;-59
2023/09/18 10:28:12;;;;;;;6.47;5.97;;;;;;;;;;5028070;28;20327;-59
2023/09/18 10:30:37;;;;;;;6.53;5.68;;;;;;;;;;5022349;28;20061;-59
2023/09/18 10:33:03;;;;;;;6.22;5.32;;;;;;;;;;5029233;28;20056;-58
2023/09/18 10:35:30;;;;;;;5.15;4.65;;;;;;;;;;5024097;28;20043;-58
2023/09/18 10:37:56;;;;;;;8.63;7.82;;;;;;;;;;5024427;28;20040;-58
2023/09/18 10:40:23;;;;;;;9.18;8.27;;;;;;;;;;5028474;28;20045;-59
2023/09/18 10:42:50;;;;;;;7.57;6.88;;;;;;;;;;5026989;28;20171;-58
2023/09/18 10:45:16;;;;;;;6.47;5.93;;;;;;;;;;5028335;28;20843;-59
2023/09/18 10:47:45;;;;;;;7.20;6.53;;;;;;;;;;5027907;28;20049;-58
2023/09/18 10:50:11;;;;;;;5.10;4.70;;;;;;;;;;5024853;28;20514;-59
2023/09/18 10:52:44;;;;;;;6.25;5.72;;;;;;;;;;5028044;28;20102;-58
2023/09/18 10:55:13;;;;;;;6.65;5.95;;;;;;;;;;5025727;28;20045;-57
2023/09/18 10:57:51;;;;;;;6.80;6.30;;;;;;;;;;5027701;28;20449;-58
2023/09/18 11:00:22;;;;;;;5.75;5.25;;;;;;;;;;5027553;28;20089;-58
2023/09/18 11:02:49;;;;;;;5.72;5.28;;;;;;;;;;5026537;28;20049;-60
2023/09/18 11:05:26;;;;;;;5.32;4.93;;;;;;;;;;5026367;28;20045;-58
2023/09/18 11:08:12;;;;;;;5.45;4.95;;;;;;;;;;5025817;28;20068;-58
2023/09/18 11:10:55;;;;;;;4.93;4.53;;;;;;;;;;5027142;28;20053;-58
2023/09/18 11:13:30;;;;;;;4.57;4.20;;;;;;;;;;5027832;28;20049;-58
2023/09/18 11:16:00;;;;;;;4.72;4.28;;;;;;;;;;5023463;28;20049;-58
2023/09/18 11:18:32;;;;;;;4.53;4.13;;;;;;;;;;5026042;28;20534;-58
2023/09/18 11:21:11;;;;;;;4.38;3.97;;;;;;;;;;5018726;28;20132;-58
2023/09/18 11:23:42;;;;;;;4.82;4.43;;;;;;;;;;5024937;28;20045;-58
2023/09/18 11:26:08;;;;;;;4.28;3.45;;;;;;;;;;5026936;28;20048;-59
2023/09/18 11:28:34;;;;;;;4.18;3.88;;;;;;;;;;5027738;28;20460;-59
2023/09/18 11:31:01;;;;;;;4.13;3.80;;;;;;;;;;5026608;28;20072;-58
2023/09/18 11:33:46;;;;;;;4.30;3.88;;;;;;;;;;5027358;28;20041;-59
2023/09/18 11:36:30;;;;;;;3.22;2.92;;;;;;;;;;5027345;28;20037;-59
2023/09/18 11:38:58;;;;;;;3.90;3.58;;;;;;;;;;5026775;28;20052;-58
2023/09/18 11:41:29;;;;;;;3.72;3.42;;;;;;;;;;5026531;28;20053;-59
2023/09/18 11:44:07;;;;;;;2.80;2.60;;;;;;;;;;5027005;28;20045;-58
2023/09/18 11:46:33;;;;;;;4.68;2.75;;;;;;;;;;5027777;28;20041;-59
2023/09/18 11:49:00;;;;;;;4.38;2.83;;;;;;;;;;5026900;28;20125;-58
2023/09/18 11:51:26;;;;;;;2.60;2.40;;;;;;;;;;5026624;28;20045;-59
2023/09/18 11:53:56;;;;;;;2.40;2.20;;;;;;;;;;5027038;28;20045;-58
2023/09/18 11:56:22;;;;;;;3.17;2.83;;;;;;;;;;5026923;28;20044;-58
2023/09/18 11:58:48;;;;;;;2.65;2.45;;;;;;;;;;5024949;28;20545;-59
2023/09/18 12:01:18;;;;;;;3.08;1.90;;;;;;;;;;5026588;28;20057;-59
2023/09/18 12:03:44;;;;;;;2.47;2.28;;;;;;;;;;5027076;28;20034;-58
2023/09/18 12:06:13;;;;;;;2.30;2.10;;;;;;;;;;5026349;28;20107;-58
2023/09/18 12:08:39;;;;;;;4.13;2.40;;;;;;;;;;5027271;28;20053;-58
2023/09/18 12:11:06;;;;;;;2.30;2.00;;;;;;;;;;5024620;28;20043;-58
2023/09/18 12:13:32;;;;;;;2.28;2.08;;;;;;;;;;5021967;28;20041;-59
2023/09/18 12:16:04;;;;;;;2.47;2.25;;;;;;;;;;5026047;28;20513;-58
2023/09/18 12:18:31;;;;;;;4.35;2.08;;;;;;;;;;5019290;28;20096;-58
2023/09/18 12:20:58;;;;;;;1.70;1.60;;;;;;;;;;5023781;28;20045;-59
2023/09/18 12:23:25;;;;;;;2.45;2.20;;;;;;;;;;5026692;28;20492;-58
2023/09/18 12:25:57;;;;;;;2.15;1.83;;;;;;;;;;5026105;28;20041;-59
2023/09/18 12:28:23;;;;;;;1.70;1.60;;;;;;;;;;5025106;28;20037;-59
2023/09/18 12:30:52;;;;;;;2.60;2.08;;;;;;;;;;5026209;28;20091;-59
2023/09/18 12:33:19;;;;;;;3.90;2.50;;;;;;;;;;5024530;28;20437;-59
2023/09/18 12:35:46;;;;;;;2.38;2.17;;;;;;;;;;5026127;28;20038;-59
2023/09/18 12:38:16;;;;;;;4.22;2.50;;;;;;;;;;5024950;28;20099;-58
2023/09/18 12:40:44;;;;;;;4.10;2.70;;;;;;;;;;5023577;28;20100;-58
2023/09/18 12:43:10;;;;;;;3.83;2.58;;;;;;;;;;5026056;28;20047;-59
2023/09/18 12:45:37;;;;;;;2.00;1.90;;;;;;;;;;5026564;28;20033;-59
2023/09/18 12:48:03;;;;;;;2.95;2.33;;;;;;;;;;5025335;28;20049;-59
2023/09/18 12:50:29;;;;;;;2.55;2.35;;;;;;;;;;5025726;28;20045;-59
2023/09/18 12:53:08;;;;;;;3.17;2.00;;;;;;;;;;5023310;28;20041;-59
2023/09/18 12:55:34;;;;;;;3.05;2.70;;;;;;;;;;5026112;28;20056;-59
2023/09/18 12:58:05;;;;;;;3.22;1.92;;;;;;;;;;5026525;28;20034;-59
2023/09/18 13:00:31;;;;;;;3.38;2.47;;;;;;;;;;5021964;28;20049;-59
2023/09/18 13:02:57;;;;;;;2.30;2.10;;;;;;;;;;5024773;28;20091;-60
2023/09/18 13:05:27;;;;;;;2.83;1.65;;;;;;;;;;5024360;28;20046;-59
2023/09/18 13:07:54;;;;;;;2.05;1.80;;;;;;;;;;5025479;28;20116;-59
2023/09/18 13:10:21;;;;;;;2.38;2.15;;;;;;;;;;5024107;28;20056;-60
2023/09/18 13:12:52;;;;;;;3.15;2.40;;;;;;;;;;5025347;28;20067;-60
2023/09/18 13:15:27;;;;;;;1.90;1.80;;;;;;;;;;5019860;28;20084;-59
2023/09/18 13:17:54;;;;;;;1.60;1.50;;;;;;;;;;5025046;28;20083;-60
2023/09/18 13:20:24;;;;;;;1.50;1.40;;;;;;;;;;5025644;28;20136;-59
2023/09/18 13:22:55;;;;;;;1.83;1.73;;;;;;;;;;5024681;28;20045;-60
2023/09/18 13:25:25;;;;;;;2.17;1.70;;;;;;;;;;5025661;28;20084;-59
2023/09/18 13:27:52;;;;;;;1.98;1.40;;;;;;;;;;5025358;28;20048;-60
2023/09/18 13:30:20;;;;;;;1.98;1.60;;;;;;;;;;5024029;28;20456;-59
2023/09/18 13:32:49;;;;;;;2.10;1.63;;;;;;;;;;5024647;28;20172;-60
2023/09/18 13:35:15;;;;;;;3.40;1.63;;;;;;;;;;5025373;28;20052;-60
2023/09/18 13:37:41;;;;;;;4.82;1.80;;;;;;;;;;5025455;28;20043;-60
2023/09/18 13:40:11;;;;;;;1.85;1.67;;;;;;;;;;5026393;28;20429;-59
2023/09/18 13:42:38;;;;;;;4.35;2.17;;;;;;;;;;5018061;28;20046;-60
2023/09/18 13:45:04;;;;;;;1.90;1.70;;;;;;;;;;5025056;28;20049;-60
2023/09/18 13:47:31;;;;;;;2.55;1.50;;;;;;;;;;5025683;28;20681;-60
2023/09/18 13:49:58;;;;;;;1.98;1.70;;;;;;;;;;5025852;28;20064;-60
2023/09/18 13:52:24;;;;;;;1.60;1.50;;;;;;;;;;5025910;28;20045;-59
2023/09/18 13:54:52;;;;;;;1.90;1.58;;;;;;;;;;5027493;28;20426;-59
2023/09/18 13:57:18;;;;;;;2.40;1.38;;;;;;;;;;5027070;28;20088;-60
2023/09/18 13:59:45;;;;;;;1.60;1.50;;;;;;;;;;5025231;28;20041;-59
2023/09/18 14:02:11;;;;;;;1.50;1.40;;;;;;;;;;5025551;28;20114;-60
2023/09/18 14:04:37;;;;;;;1.42;1.33;;;;;;;;;;5025733;28;20038;-60
2023/09/18 14:07:03;;;;;;;1.45;1.35;;;;;;;;;;5025010;28;20033;-60
2023/09/18 14:09:30;;;;;;;1.60;1.50;;;;;;;;;;5025770;28;20120;-59
2023/09/18 14:11:56;;;;;;;2.00;1.58;;;;;;;;;;5024949;28;20056;-60
2023/09/18 14:14:25;;;;;;;1.63;1.52;;;;;;;;;;5025399;28;20409;-60
2023/09/18 14:16:51;;;;;;;1.55;1.45;;;;;;;;;;5025497;28;20080;-60
2023/09/18 14:19:17;;;;;;;2.72;1.90;;;;;;;;;;5023204;28;20559;-60
2023/09/18 14:21:44;;;;;;;1.40;1.30;;;;;;;;;;5025384;28;20520;-59
2023/09/18 14:24:11;;;;;;;2.72;1.23;;;;;;;;;;5025767;28;20397;-59
2023/09/18 14:26:40;;;;;;;2.33;1.35;;;;;;;;;;5024914;28;20497;-59
2023/09/18 14:29:09;;;;;;;1.40;1.30;;;;;;;;;;5024493;28;20037;-59
2023/09/18 14:31:38;;;;;;;1.45;1.40;;;;;;;;;;5025332;28;20195;-59
2023/09/18 14:34:05;;;;;;;2.88;1.80;;;;;;;;;;5025233;28;20045;-59
2023/09/18 14:36:35;;;;;;;1.92;1.83;;;;;;;;;;5025862;28;20045;-60
2023/09/18 14:39:01;;;;;;;2.05;1.83;;;;;;;;;;5015969;28;20037;-60
2023/09/18 14:41:27;;;;;;;1.70;1.60;;;;;;;;;;5024449;28;20057;-60
2023/09/18 14:43:54;;;;;;;2.25;2.05;;;;;;;;;;5028438;28;20041;-60